createdAt,value
2018-02-14T00:01:05.063Z,0.30
2018-02-14T00:03:32.629Z,0.40
2018-02-14T00:06:00.145Z,0.40
2018-02-14T00:08:28.462Z,0.30
2018-02-14T00:10:56.020Z,0.30
2018-02-14T00:13:23.689Z,0.30
2018-02-14T00:15:51.414Z,0.30
2018-02-14T00:18:19.114Z,0.20
2018-02-14T00:20:47.504Z,0.20
2018-02-14T00:23:15.970Z,0.20
2018-02-14T00:25:43.541Z,0.20
2018-02-14T00:28:11.049Z,0.20
2018-02-14T00:30:39.316Z,0.20
2018-02-14T00:33:06.911Z,0.10
2018-02-14T00:35:35.177Z,0.10
2018-02-14T00:38:02.675Z,0.10
2018-02-14T00:40:30.981Z,0.10
2018-02-14T00:42:58.577Z,0.10
2018-02-14T00:45:26.085Z,0.10
2018-02-14T00:47:53.601Z,0.00
2018-02-14T00:50:21.099Z,0.00
2018-02-14T00:52:48.621Z,0.00
2018-02-14T00:55:16.124Z,0.00
2018-02-14T00:57:43.648Z,0.00
2018-02-14T01:00:11.905Z,0.00
2018-02-14T01:02:40.260Z,0.00
2018-02-14T01:05:08.016Z,0.00
2018-02-14T01:07:35.800Z,-0.10
2018-02-14T01:10:03.472Z,-0.10
2018-02-14T01:12:31.005Z,-0.10
2018-02-14T01:14:58.498Z,-0.10
2018-02-14T01:17:26.794Z,-0.20
2018-02-14T01:20:00.075Z,-0.20
2018-02-14T01:22:28.350Z,-0.20
2018-02-14T01:24:57.362Z,-0.20
2018-02-14T01:27:25.062Z,-0.20
2018-02-14T01:29:53.329Z,-0.20
2018-02-14T01:32:20.876Z,-0.20
2018-02-14T01:34:48.489Z,-0.20
2018-02-14T01:37:16.801Z,-0.20
2018-02-14T01:39:44.299Z,-0.20
2018-02-14T01:42:11.820Z,-0.20
2018-02-14T01:44:39.353Z,-0.30
2018-02-14T01:47:06.973Z,-0.30
2018-02-14T01:49:34.533Z,-0.30
2018-02-14T01:52:02.830Z,-0.30
2018-02-14T01:54:30.359Z,-0.30
2018-02-14T01:56:57.897Z,-0.30
2018-02-14T01:59:25.398Z,-0.30
2018-02-14T02:01:53.205Z,-0.30
2018-02-14T02:04:21.007Z,-0.30
2018-02-14T02:06:48.526Z,-0.30
2018-02-14T02:09:16.048Z,-0.30
2018-02-14T02:11:43.666Z,-0.30
2018-02-14T02:14:11.234Z,-0.30
2018-02-14T02:16:38.794Z,-0.30
2018-02-14T02:19:06.372Z,-0.30
2018-02-14T02:21:33.878Z,-0.30
2018-02-14T02:24:02.158Z,-0.30
2018-02-14T02:26:30.296Z,-0.30
2018-02-14T02:28:57.820Z,-0.30
2018-02-14T02:31:25.329Z,-0.30
2018-02-14T02:33:52.942Z,-0.30
2018-02-14T02:36:20.439Z,-0.40
2018-02-14T02:38:48.081Z,-0.40
2018-02-14T02:41:15.574Z,-0.40
2018-02-14T02:43:44.243Z,-0.40
2018-02-14T02:46:11.748Z,-0.40
2018-02-14T02:48:40.066Z,-0.40
2018-02-14T02:51:07.587Z,-0.50
2018-02-14T02:53:35.125Z,-0.40
2018-02-14T02:56:02.627Z,-0.50
2018-02-14T02:58:30.970Z,-0.50
2018-02-14T03:00:58.472Z,-0.50
2018-02-14T03:03:26.104Z,-0.50
2018-02-14T03:05:53.675Z,-0.50
2018-02-14T03:08:21.261Z,-0.50
2018-02-14T03:10:48.788Z,-0.50
2018-02-14T03:13:16.305Z,-0.50
2018-02-14T03:15:43.827Z,-0.50
2018-02-14T03:18:11.433Z,-0.50
2018-02-14T03:20:39.009Z,-0.50
2018-02-14T03:23:06.527Z,-0.60
2018-02-14T03:25:34.135Z,-0.60
2018-02-14T03:28:02.474Z,-0.60
2018-02-14T03:30:29.974Z,-0.60
2018-02-14T03:32:57.533Z,-0.60
2018-02-14T03:35:25.041Z,-0.60
2018-02-14T03:37:52.558Z,-0.60
2018-02-14T03:40:20.073Z,-0.60
2018-02-14T03:42:48.384Z,-0.60
2018-02-14T03:45:16.773Z,-0.60
2018-02-14T03:47:44.363Z,-0.60
2018-02-14T03:50:11.876Z,-0.60
2018-02-14T03:52:39.397Z,-0.60
2018-02-14T03:55:06.928Z,-0.60
2018-02-14T03:57:35.248Z,-0.60
2018-02-14T04:00:02.738Z,-0.70
2018-02-14T04:02:30.275Z,-0.70
2018-02-14T04:04:58.634Z,-0.70
2018-02-14T04:07:27.158Z,-0.70
2018-02-14T04:09:54.789Z,-0.70
2018-02-14T04:12:22.366Z,-0.70
2018-02-14T04:14:49.870Z,-0.70
2018-02-14T04:17:17.435Z,-0.70
2018-02-14T04:19:45.726Z,-0.70
2018-02-14T04:22:13.395Z,-0.70
2018-02-14T04:24:41.669Z,-0.70
2018-02-14T04:27:09.192Z,-0.70
2018-02-14T04:29:36.720Z,-0.70
2018-02-14T04:32:05.072Z,-0.80
2018-02-14T04:34:32.644Z,-0.80
2018-02-14T04:37:00.220Z,-0.70
2018-02-14T04:39:27.806Z,-0.70
2018-02-14T04:41:56.318Z,-0.80
2018-02-14T04:44:24.709Z,-0.80
2018-02-14T04:46:52.993Z,-0.80
2018-02-14T04:49:21.280Z,-0.80
2018-02-14T04:51:48.867Z,-0.80
2018-02-14T04:54:17.136Z,-0.80
2018-02-14T04:56:45.415Z,-0.80
2018-02-14T04:59:12.913Z,-0.80
2018-02-14T05:01:40.427Z,-0.80
2018-02-14T05:04:07.949Z,-0.90
2018-02-14T05:06:35.485Z,-0.90
2018-02-14T05:09:03.015Z,-0.90
2018-02-14T05:11:30.527Z,-0.90
2018-02-14T05:13:58.154Z,-0.90
2018-02-14T05:16:25.709Z,-0.90
2018-02-14T05:18:53.228Z,-0.90
2018-02-14T05:21:20.728Z,-0.90
2018-02-14T05:23:48.257Z,-0.90
2018-02-14T05:26:15.783Z,-0.90
2018-02-14T05:28:44.064Z,-0.90
2018-02-14T05:31:12.433Z,-1.00
2018-02-14T05:33:40.053Z,-1.00
2018-02-14T05:36:07.576Z,-1.00
2018-02-14T05:38:35.100Z,-0.90
2018-02-14T05:41:02.614Z,-0.90
2018-02-14T05:43:30.146Z,-0.90
2018-02-14T05:45:57.718Z,-0.90
2018-02-14T05:48:25.245Z,-0.90
2018-02-14T05:50:53.557Z,-0.90
2018-02-14T05:53:21.938Z,-1.00
2018-02-14T05:55:50.217Z,-1.00
2018-02-14T05:58:17.763Z,-1.00
2018-02-14T06:00:45.283Z,-1.00
2018-02-14T06:03:13.682Z,-1.00
2018-02-14T06:05:41.271Z,-1.00
2018-02-14T06:08:08.937Z,-1.00
2018-02-14T06:10:36.491Z,-1.00
2018-02-14T06:13:04.071Z,-1.00
2018-02-14T06:15:31.567Z,-1.00
2018-02-14T06:17:59.194Z,-1.00
2018-02-14T06:20:27.628Z,-1.10
2018-02-14T06:22:55.145Z,-1.10
2018-02-14T06:25:23.473Z,-1.10
2018-02-14T06:27:51.050Z,-1.10
2018-02-14T06:30:18.714Z,-1.10
2018-02-14T06:32:46.272Z,-1.00
2018-02-14T06:35:13.816Z,-1.00
2018-02-14T06:37:41.462Z,-1.00
2018-02-14T06:40:08.974Z,-1.00
2018-02-14T06:42:37.355Z,-1.00
2018-02-14T06:45:04.890Z,-1.00
2018-02-14T06:47:32.435Z,-1.00
2018-02-14T06:49:59.964Z,-1.00
2018-02-14T06:52:27.625Z,-1.00
2018-02-14T06:54:56.031Z,-1.00
2018-02-14T06:57:23.640Z,-1.00
2018-02-14T06:59:51.186Z,-0.80
2018-02-14T07:02:18.895Z,1.10
2018-02-14T07:04:46.464Z,2.40
2018-02-14T07:07:14.008Z,3.40
2018-02-14T07:09:42.327Z,4.20
2018-02-14T07:12:09.890Z,4.20
2018-02-14T07:14:37.599Z,3.50
2018-02-14T07:17:05.147Z,2.70
2018-02-14T07:19:32.892Z,2.20
2018-02-14T07:22:01.177Z,1.40
2018-02-14T07:24:29.441Z,1.10
2018-02-14T07:26:56.961Z,1.00
2018-02-14T07:29:24.480Z,0.80
2018-02-14T07:31:52.838Z,0.60
2018-02-14T07:34:20.487Z,0.50
2018-02-14T07:36:48.773Z,0.40
2018-02-14T07:39:16.332Z,0.40
2018-02-14T07:41:44.744Z,0.30
2018-02-14T07:44:12.265Z,0.30
2018-02-14T07:46:39.772Z,0.30
2018-02-14T07:49:08.136Z,0.20
2018-02-14T07:51:35.692Z,0.10
2018-02-14T07:54:03.214Z,0.10
2018-02-14T07:56:30.774Z,0.10
2018-02-14T07:58:59.102Z,0.10
2018-02-14T08:01:27.478Z,0.10
2018-02-14T08:03:55.029Z,0.10
2018-02-14T08:06:23.904Z,0.10
2018-02-14T08:08:51.519Z,0.10
2018-02-14T08:11:19.034Z,0.20
2018-02-14T08:13:46.626Z,0.20
2018-02-14T08:16:14.939Z,0.20
2018-02-14T08:18:42.452Z,0.20
2018-02-14T08:21:09.990Z,0.20
2018-02-14T08:23:37.515Z,0.20
2018-02-14T08:26:05.014Z,0.20
2018-02-14T08:28:32.597Z,0.30
2018-02-14T08:31:00.167Z,0.30
2018-02-14T08:33:28.465Z,0.40
2018-02-14T08:35:56.002Z,0.40
2018-02-14T08:38:23.502Z,0.40
2018-02-14T08:40:51.059Z,0.50
2018-02-14T08:43:18.630Z,0.50
2018-02-14T08:45:46.902Z,0.60
2018-02-14T08:48:15.211Z,0.60
2018-02-14T08:50:42.939Z,0.60
2018-02-14T08:53:10.462Z,0.60
2018-02-14T08:55:37.998Z,0.70
2018-02-14T08:58:05.686Z,0.70
2018-02-14T09:00:33.209Z,0.80
2018-02-14T09:03:00.747Z,0.80
2018-02-14T09:05:28.259Z,0.80
2018-02-14T09:07:55.901Z,0.90
2018-02-14T09:10:23.430Z,1.00
2018-02-14T09:12:50.932Z,1.00
2018-02-14T09:15:18.643Z,1.10
2018-02-14T09:17:46.297Z,1.10
2018-02-14T09:20:13.802Z,1.20
2018-02-14T09:22:41.374Z,1.30
2018-02-14T09:25:08.932Z,1.30
2018-02-14T09:27:36.455Z,1.40
2018-02-14T09:30:04.017Z,1.50
2018-02-14T09:32:32.305Z,1.60
2018-02-14T09:35:00.020Z,1.60
2018-02-14T09:37:27.967Z,1.70
2018-02-14T09:39:55.571Z,1.80
2018-02-14T09:42:23.120Z,1.90
2018-02-14T09:44:51.089Z,2.00
2018-02-14T09:47:18.651Z,2.10
2018-02-14T09:49:46.967Z,2.60
2018-02-14T09:52:14.500Z,2.50
2018-02-14T09:54:42.811Z,3.20
2018-02-14T09:57:11.225Z,3.10
2018-02-14T09:59:38.799Z,3.60
2018-02-14T10:02:06.521Z,3.90
2018-02-14T10:04:34.824Z,4.70
2018-02-14T10:07:04.024Z,5.10
2018-02-14T10:09:31.605Z,5.10
2018-02-14T10:11:59.987Z,6.30
2018-02-14T10:14:28.262Z,6.70
2018-02-14T10:16:55.836Z,6.70
2018-02-14T10:19:23.358Z,7.00
2018-02-14T10:21:51.051Z,7.20
2018-02-14T10:24:18.557Z,7.70
2018-02-14T10:26:46.137Z,8.20
2018-02-14T10:29:13.744Z,8.50
2018-02-14T10:31:41.353Z,8.50
2018-02-14T10:34:08.874Z,8.60
2018-02-14T10:36:37.177Z,9.40
2018-02-14T10:39:05.213Z,9.40
2018-02-14T10:41:32.733Z,9.90
2018-02-14T10:44:00.272Z,10.30
2018-02-14T10:46:28.754Z,11.20
2018-02-14T10:48:56.406Z,11.10
2018-02-14T10:51:24.138Z,11.50
2018-02-14T10:53:51.658Z,11.80
2018-02-14T10:56:19.359Z,12.10
2018-02-14T10:58:47.631Z,12.80
2018-02-14T11:01:20.798Z,12.70
2018-02-14T11:03:51.166Z,13.00
2018-02-14T11:06:18.699Z,13.10
2018-02-14T11:08:46.535Z,13.40
2018-02-14T11:11:14.086Z,13.60
2018-02-14T11:13:42.425Z,13.90
2018-02-14T11:16:09.978Z,13.90
2018-02-14T11:18:38.341Z,13.90
2018-02-14T11:21:05.863Z,13.90
2018-02-14T11:23:33.510Z,14.20
2018-02-14T11:26:01.820Z,14.70
2018-02-14T11:28:29.369Z,14.60
2018-02-14T11:30:57.670Z,14.90
2018-02-14T11:33:25.993Z,15.10
2018-02-14T11:35:53.521Z,15.10
2018-02-14T11:38:21.899Z,15.50
2018-02-14T11:40:49.439Z,15.40
2018-02-14T11:43:16.982Z,15.60
2018-02-14T11:45:44.623Z,15.60
2018-02-14T11:48:12.934Z,15.90
2018-02-14T11:50:40.476Z,15.80
2018-02-14T11:53:08.779Z,16.20
2018-02-14T11:55:37.058Z,16.30
2018-02-14T11:58:05.524Z,16.30
2018-02-14T12:00:33.264Z,16.30
2018-02-14T12:03:00.791Z,16.40
2018-02-14T12:05:29.088Z,16.40
2018-02-14T12:07:57.386Z,16.50
2018-02-14T12:10:25.693Z,16.30
2018-02-14T12:12:53.276Z,16.30
2018-02-14T12:15:20.893Z,16.10
2018-02-14T12:17:48.522Z,16.20
2018-02-14T12:20:16.038Z,16.20
2018-02-14T12:22:44.379Z,16.10
2018-02-14T12:25:11.945Z,16.10
2018-02-14T12:27:39.600Z,16.00
2018-02-14T12:30:07.856Z,15.80
2018-02-14T12:32:35.368Z,15.80
2018-02-14T12:35:02.893Z,15.60
2018-02-14T12:37:30.716Z,15.00
2018-02-14T12:39:58.433Z,14.10
2018-02-14T12:42:26.068Z,13.70
2018-02-14T12:44:53.603Z,13.60
2018-02-14T12:47:21.292Z,13.70
2018-02-14T12:49:49.571Z,14.00
2018-02-14T12:52:17.888Z,13.90
2018-02-14T12:54:45.444Z,13.90
2018-02-14T12:57:13.753Z,13.80
2018-02-14T12:59:41.283Z,13.80
2018-02-14T13:02:08.848Z,13.90
2018-02-14T13:04:36.385Z,13.90
2018-02-14T13:07:03.922Z,13.90
2018-02-14T13:09:32.228Z,13.50
2018-02-14T13:11:59.786Z,13.50
2018-02-14T13:14:27.318Z,13.40
2018-02-14T13:16:54.816Z,13.30
2018-02-14T13:19:23.112Z,13.40
2018-02-14T13:21:51.437Z,13.50
2018-02-14T13:24:19.159Z,13.50
2018-02-14T13:26:47.543Z,13.80
2018-02-14T13:29:15.821Z,13.70
2018-02-14T13:31:43.372Z,13.70
2018-02-14T13:34:10.940Z,13.70
2018-02-14T13:36:38.441Z,13.60
2018-02-14T13:39:05.954Z,13.50
2018-02-14T13:41:33.462Z,13.40
2018-02-14T13:44:01.054Z,13.50
2018-02-14T13:46:28.590Z,13.50
2018-02-14T13:48:56.104Z,13.50
2018-02-14T13:51:24.393Z,13.30
2018-02-14T13:53:52.098Z,13.30
2018-02-14T13:56:19.666Z,13.30
2018-02-14T13:58:47.181Z,13.00
2018-02-14T14:01:14.915Z,12.80
2018-02-14T14:03:42.416Z,12.80
2018-02-14T14:06:10.056Z,12.80
2018-02-14T14:08:37.572Z,12.80
2018-02-14T14:11:05.675Z,12.70
2018-02-14T14:13:33.209Z,12.60
2018-02-14T14:16:00.760Z,12.60
2018-02-14T14:18:28.324Z,12.60
2018-02-14T14:20:55.875Z,12.50
2018-02-14T14:23:24.267Z,12.20
2018-02-14T14:25:52.559Z,12.10
2018-02-14T14:28:20.847Z,12.00
2018-02-14T14:30:48.428Z,12.00
2018-02-14T14:33:16.588Z,11.90
2018-02-14T14:35:44.346Z,11.70
2018-02-14T14:38:11.924Z,11.60
2018-02-14T14:40:39.487Z,11.50
2018-02-14T14:43:07.040Z,11.30
2018-02-14T14:45:34.560Z,11.00
2018-02-14T14:48:02.841Z,10.60
2018-02-14T14:50:31.515Z,10.50
2018-02-14T14:52:59.023Z,10.40
2018-02-14T14:55:27.338Z,9.90
2018-02-14T14:57:54.897Z,9.90
2018-02-14T15:00:22.440Z,9.70
2018-02-14T15:02:50.724Z,9.10
2018-02-14T15:05:19.090Z,8.90
2018-02-14T15:07:46.726Z,8.90
2018-02-14T15:10:14.280Z,8.70
2018-02-14T15:12:41.913Z,8.50
2018-02-14T15:15:09.423Z,8.40
2018-02-14T15:17:36.932Z,8.30
2018-02-14T15:20:04.490Z,8.20
2018-02-14T15:22:32.856Z,8.00
2018-02-14T15:25:00.356Z,8.00
2018-02-14T15:27:27.890Z,7.90
2018-02-14T15:29:56.172Z,7.50
2018-02-14T15:32:24.484Z,7.40
2018-02-14T15:34:52.284Z,7.40
2018-02-14T15:37:19.825Z,7.30
2018-02-14T15:39:47.376Z,7.20
2018-02-14T15:42:15.784Z,7.00
2018-02-14T15:44:44.327Z,7.00
2018-02-14T15:47:11.914Z,7.00
2018-02-14T15:49:39.512Z,6.90
2018-02-14T15:52:07.866Z,6.70
2018-02-14T15:54:35.411Z,6.60
2018-02-14T15:57:02.944Z,6.60
2018-02-14T15:59:31.208Z,6.40
2018-02-14T16:01:58.740Z,6.40
2018-02-14T16:04:26.263Z,6.30
2018-02-14T16:06:53.778Z,6.20
2018-02-14T16:09:21.401Z,6.20
2018-02-14T16:11:49.061Z,6.10
2018-02-14T16:14:17.426Z,6.00
2018-02-14T16:16:45.777Z,5.90
2018-02-14T16:19:14.141Z,5.80
2018-02-14T16:21:41.654Z,5.80
2018-02-14T16:24:09.176Z,5.70
2018-02-14T16:26:36.669Z,5.70
2018-02-14T16:29:04.996Z,5.60
2018-02-14T16:31:32.493Z,5.60
2018-02-14T16:34:00.052Z,5.50
2018-02-14T16:36:27.789Z,5.50
2018-02-14T16:38:56.163Z,5.30
2018-02-14T16:41:24.480Z,5.20
2018-02-14T16:43:52.015Z,5.10
2018-02-14T16:46:19.642Z,5.10
2018-02-14T16:48:48.142Z,4.90
2018-02-14T16:51:16.168Z,4.90
2018-02-14T16:53:44.513Z,4.80
2018-02-14T16:56:12.165Z,4.80
2018-02-14T16:58:39.811Z,4.70
2018-02-14T17:01:08.102Z,4.50
2018-02-14T17:03:36.372Z,4.50
2018-02-14T17:06:03.994Z,4.50
2018-02-14T17:08:31.509Z,4.50
2018-02-14T17:10:59.108Z,4.40
2018-02-14T17:13:27.377Z,4.30
2018-02-14T17:15:54.906Z,4.30
2018-02-14T17:18:22.558Z,4.20
2018-02-14T17:20:50.148Z,4.20
2018-02-14T17:23:17.665Z,4.10
2018-02-14T17:25:45.189Z,4.10
2018-02-14T17:28:12.706Z,4.00
2018-02-14T17:30:40.307Z,3.90
2018-02-14T17:33:07.802Z,3.90
2018-02-14T17:35:35.349Z,3.90
2018-02-14T17:38:02.852Z,3.80
2018-02-14T17:40:30.482Z,3.80
2018-02-14T17:42:58.045Z,3.80
2018-02-14T17:45:26.528Z,3.70
2018-02-14T17:47:54.838Z,3.60
2018-02-14T17:50:23.139Z,3.50
2018-02-14T17:52:50.729Z,3.50
2018-02-14T17:55:18.286Z,3.50
2018-02-14T17:57:45.777Z,3.40
2018-02-14T18:00:13.305Z,3.30
2018-02-14T18:02:42.038Z,3.20
2018-02-14T18:05:09.622Z,3.20
2018-02-14T18:07:37.182Z,3.10
2018-02-14T18:10:04.875Z,3.10
2018-02-14T18:12:32.440Z,3.00
2018-02-14T18:15:00.036Z,3.00
2018-02-14T18:17:27.575Z,3.00
2018-02-14T18:19:55.214Z,2.90
2018-02-14T18:22:22.840Z,2.80
2018-02-14T18:24:50.457Z,2.70
2018-02-14T18:27:18.795Z,2.60
2018-02-14T18:29:46.439Z,2.60
2018-02-14T18:32:14.023Z,2.60
2018-02-14T18:34:41.633Z,2.60
2018-02-14T18:37:09.237Z,2.50
2018-02-14T18:39:37.608Z,2.50
2018-02-14T18:42:05.180Z,2.50
2018-02-14T18:44:32.732Z,2.50
2018-02-14T18:47:00.302Z,2.40
2018-02-14T18:49:27.867Z,2.40
2018-02-14T18:51:55.404Z,2.40
2018-02-14T18:54:23.064Z,2.30
2018-02-14T18:56:51.633Z,2.30
2018-02-14T18:59:19.273Z,2.30
2018-02-14T19:01:46.825Z,2.30
2018-02-14T19:04:14.498Z,2.20
2018-02-14T19:06:42.049Z,2.20
2018-02-14T19:09:09.732Z,2.10
2018-02-14T19:11:38.306Z,2.10
2018-02-14T19:14:05.899Z,2.00
2018-02-14T19:16:33.439Z,2.00
2018-02-14T19:19:01.383Z,1.90
2018-02-14T19:21:28.987Z,1.80
2018-02-14T19:23:59.334Z,1.80
2018-02-14T19:26:26.922Z,1.80
2018-02-14T19:28:54.594Z,1.70
2018-02-14T19:31:27.181Z,1.70
2018-02-14T19:33:55.522Z,1.60
2018-02-14T19:36:23.041Z,1.60
2018-02-14T19:38:51.404Z,1.50
2018-02-14T19:41:18.976Z,1.50
2018-02-14T19:43:46.538Z,1.50
2018-02-14T19:46:14.125Z,1.50
2018-02-14T19:48:41.651Z,1.40
2018-02-14T19:51:09.270Z,1.40
2018-02-14T19:53:37.429Z,1.40
2018-02-14T19:56:15.787Z,1.40
2018-02-14T19:58:43.420Z,1.30
2018-02-14T20:01:11.819Z,1.30
2018-02-14T20:03:39.654Z,1.20
2018-02-14T20:06:08.027Z,1.10
2018-02-14T20:08:36.373Z,0.90
2018-02-14T20:11:04.109Z,0.90
2018-02-14T20:13:31.664Z,0.80
2018-02-14T20:16:00.112Z,0.80
2018-02-14T20:18:27.860Z,0.70
2018-02-14T20:20:55.446Z,0.70
2018-02-14T20:23:23.083Z,0.60
2018-02-14T20:25:51.262Z,0.50
2018-02-14T20:28:19.642Z,0.50
2018-02-14T20:30:47.204Z,0.50
2018-02-14T20:33:14.798Z,0.40
2018-02-14T20:35:43.163Z,0.40
2018-02-14T20:38:12.401Z,0.30
2018-02-14T20:40:40.698Z,0.20
2018-02-14T20:43:09.041Z,0.20
2018-02-14T20:45:36.602Z,0.20
2018-02-14T20:48:04.251Z,0.20
2018-02-14T20:50:31.792Z,0.20
2018-02-14T20:53:00.242Z,3.80
2018-02-14T20:55:27.784Z,3.70
2018-02-14T20:57:56.136Z,4.40
2018-02-14T21:00:25.308Z,5.10
2018-02-14T21:02:53.328Z,5.00
2018-02-14T21:05:21.687Z,5.40
2018-02-14T21:07:49.260Z,5.40
2018-02-14T21:10:17.625Z,5.40
2018-02-14T21:12:45.881Z,6.50
2018-02-14T21:15:13.576Z,5.60
2018-02-14T21:17:41.143Z,4.80
2018-02-14T21:20:08.731Z,3.90
2018-02-14T21:22:36.999Z,3.10
2018-02-14T21:25:04.547Z,2.60
2018-02-14T21:27:32.166Z,2.20
2018-02-14T21:29:59.756Z,1.90
2018-02-14T21:32:27.279Z,1.60
2018-02-14T21:34:55.580Z,1.40
2018-02-14T21:37:23.906Z,1.20
2018-02-14T21:39:51.463Z,1.20
2018-02-14T21:42:19.011Z,1.10
2018-02-14T21:44:46.587Z,0.90
2018-02-14T21:47:14.090Z,0.90
2018-02-14T21:49:41.666Z,0.80
2018-02-14T21:52:09.213Z,0.70
2018-02-14T21:54:36.796Z,0.60
2018-02-14T21:57:04.357Z,0.60
2018-02-14T21:59:31.896Z,0.50
2018-02-14T22:02:00.172Z,0.40
2018-02-14T22:04:28.532Z,0.40
2018-02-14T22:06:56.882Z,0.40
2018-02-14T22:09:24.535Z,0.30
2018-02-14T22:11:52.819Z,0.30
2018-02-14T22:14:21.166Z,0.30
2018-02-14T22:16:48.760Z,0.30
2018-02-14T22:19:16.486Z,0.20
2018-02-14T22:21:44.065Z,0.10
2018-02-14T22:24:11.578Z,0.10
2018-02-14T22:26:39.101Z,0.00
2018-02-14T22:29:07.177Z,0.00
2018-02-14T22:31:34.723Z,0.00
2018-02-14T22:34:02.257Z,-0.10
2018-02-14T22:36:29.777Z,-0.10
2018-02-14T22:38:57.318Z,-0.10
2018-02-14T22:41:24.843Z,-0.10
2018-02-14T22:43:53.002Z,-0.10
2018-02-14T22:46:20.549Z,0.00
2018-02-14T22:48:48.154Z,-0.10
2018-02-14T22:51:16.440Z,-0.30
2018-02-14T22:53:44.767Z,-0.30
2018-02-14T22:56:12.277Z,-0.30
2018-02-14T22:58:39.819Z,-0.40
2018-02-14T23:01:07.325Z,-0.50
2018-02-14T23:03:35.683Z,-0.50
2018-02-14T23:06:03.216Z,-0.50
2018-02-14T23:08:30.776Z,-0.40
2018-02-14T23:10:59.098Z,-0.40
2018-02-14T23:13:26.687Z,-0.40
2018-02-14T23:15:54.311Z,-0.40
2018-02-14T23:18:21.944Z,-0.40
2018-02-14T23:20:49.518Z,-0.40
2018-02-14T23:23:17.077Z,-0.40
2018-02-14T23:25:44.615Z,-0.50
2018-02-14T23:28:12.310Z,-0.60
2018-02-14T23:30:39.877Z,-0.60
2018-02-14T23:33:07.449Z,-0.60
2018-02-14T23:35:35.223Z,-0.60
2018-02-14T23:38:02.763Z,-0.60
2018-02-14T23:40:30.463Z,-0.60
2018-02-14T23:42:58.007Z,-0.60
2018-02-14T23:45:26.430Z,-0.50
2018-02-14T23:47:53.937Z,-0.60
2018-02-14T23:50:21.785Z,-0.50
2018-02-14T23:52:49.446Z,-0.50
2018-02-14T23:55:17.019Z,-0.60
2018-02-14T23:57:44.537Z,-0.60
